sensor_id;sensor_type;location;lat;lon;timestamp;P1;durP1;ratioP1;P2;durP2;ratioP2
38238;SDS011;24035;48.900;9.188;2022-12-18T00:01:17;32.72;;;13.43;;
38238;SDS011;24035;48.900;9.188;2022-12-18T00:03:47;31.08;;;11.50;;
38238;SDS011;24035;48.900;9.188;2022-12-18T00:06:14;29.45;;;12.68;;
38238;SDS011;24035;48.900;9.188;2022-12-18T00:08:40;32.33;;;11.27;;
38238;SDS011;24035;48.900;9.188;2022-12-18T00:11:08;36.88;;;13.48;;
38238;SDS011;24035;48.900;9.188;2022-12-18T00:13:36;38.10;;;11.95;;
38238;SDS011;24035;48.900;9.188;2022-12-18T00:16:02;30.15;;;12.57;;
38238;SDS011;24035;48.900;9.188;2022-12-18T00:18:33;33.25;;;12.50;;
38238;SDS011;24035;48.900;9.188;2022-12-18T00:21:00;34.85;;;13.95;;
38238;SDS011;24035;48.900;9.188;2022-12-18T00:23:31;28.95;;;12.65;;
38238;SDS011;24035;48.900;9.188;2022-12-18T00:26:01;29.70;;;11.95;;
38238;SDS011;24035;48.900;9.188;2022-12-18T00:28:28;33.05;;;11.23;;
38238;SDS011;24035;48.900;9.188;2022-12-18T00:31:03;33.95;;;12.63;;
38238;SDS011;24035;48.900;9.188;2022-12-18T00:33:30;40.20;;;14.60;;
38238;SDS011;24035;48.900;9.188;2022-12-18T00:38:54;30.77;;;10.75;;
38238;SDS011;24035;48.900;9.188;2022-12-18T00:41:21;30.10;;;12.70;;
38238;SDS011;24035;48.900;9.188;2022-12-18T00:44:06;29.23;;;10.55;;
38238;SDS011;24035;48.900;9.188;2022-12-18T00:46:34;29.00;;;11.68;;
38238;SDS011;24035;48.900;9.188;2022-12-18T00:49:00;30.00;;;12.48;;
38238;SDS011;24035;48.900;9.188;2022-12-18T00:51:26;34.17;;;11.40;;
38238;SDS011;24035;48.900;9.188;2022-12-18T00:53:52;28.05;;;12.48;;
38238;SDS011;24035;48.900;9.188;2022-12-18T00:56:21;28.25;;;12.35;;
38238;SDS011;24035;48.900;9.188;2022-12-18T00:58:47;29.05;;;12.48;;
38238;SDS011;24035;48.900;9.188;2022-12-18T01:01:14;31.38;;;11.68;;
38238;SDS011;24035;48.900;9.188;2022-12-18T01:03:40;28.20;;;11.88;;
38238;SDS011;24035;48.900;9.188;2022-12-18T01:06:06;26.13;;;10.30;;
38238;SDS011;24035;48.900;9.188;2022-12-18T01:08:33;31.30;;;11.88;;
38238;SDS011;24035;48.900;9.188;2022-12-18T01:11:00;28.75;;;11.93;;
38238;SDS011;24035;48.900;9.188;2022-12-18T01:13:32;31.33;;;12.20;;
38238;SDS011;24035;48.900;9.188;2022-12-18T01:15:57;37.15;;;14.73;;
38238;SDS011;24035;48.900;9.188;2022-12-18T01:18:23;31.35;;;11.57;;
38238;SDS011;24035;48.900;9.188;2022-12-18T01:20:49;28.23;;;12.90;;
38238;SDS011;24035;48.900;9.188;2022-12-18T01:23:15;31.75;;;11.80;;
38238;SDS011;24035;48.900;9.188;2022-12-18T01:25:40;33.80;;;13.85;;
38238;SDS011;24035;48.900;9.188;2022-12-18T01:28:06;33.53;;;14.27;;
38238;SDS011;24035;48.900;9.188;2022-12-18T01:30:31;34.15;;;12.73;;
38238;SDS011;24035;48.900;9.188;2022-12-18T01:32:57;32.22;;;12.93;;
38238;SDS011;24035;48.900;9.188;2022-12-18T01:35:23;26.38;;;12.30;;
38238;SDS011;24035;48.900;9.188;2022-12-18T01:37:48;35.47;;;11.32;;
38238;SDS011;24035;48.900;9.188;2022-12-18T01:40:14;29.05;;;12.05;;
38238;SDS011;24035;48.900;9.188;2022-12-18T01:42:40;32.40;;;12.38;;
38238;SDS011;24035;48.900;9.188;2022-12-18T01:45:08;34.95;;;13.10;;
38238;SDS011;24035;48.900;9.188;2022-12-18T01:47:49;37.83;;;12.32;;
38238;SDS011;24035;48.900;9.188;2022-12-18T01:50:25;26.17;;;12.38;;
38238;SDS011;24035;48.900;9.188;2022-12-18T01:53:07;30.77;;;13.13;;
38238;SDS011;24035;48.900;9.188;2022-12-18T01:55:45;28.63;;;12.20;;
38238;SDS011;24035;48.900;9.188;2022-12-18T01:58:17;25.10;;;11.05;;
38238;SDS011;24035;48.900;9.188;2022-12-18T02:00:44;31.15;;;12.63;;
38238;SDS011;24035;48.900;9.188;2022-12-18T02:03:10;31.88;;;12.23;;
38238;SDS011;24035;48.900;9.188;2022-12-18T02:08:09;29.35;;;12.13;;
38238;SDS011;24035;48.900;9.188;2022-12-18T02:10:45;32.92;;;11.98;;
38238;SDS011;24035;48.900;9.188;2022-12-18T02:13:40;33.70;;;12.45;;
38238;SDS011;24035;48.900;9.188;2022-12-18T02:16:17;27.42;;;11.05;;
38238;SDS011;24035;48.900;9.188;2022-12-18T02:18:45;32.30;;;12.25;;
38238;SDS011;24035;48.900;9.188;2022-12-18T02:21:26;30.92;;;12.60;;
38238;SDS011;24035;48.900;9.188;2022-12-18T02:26:44;24.90;;;11.07;;
38238;SDS011;24035;48.900;9.188;2022-12-18T02:29:56;20.98;;;10.95;;
38238;SDS011;24035;48.900;9.188;2022-12-18T02:32:06;25.48;;;11.77;;
38238;SDS011;24035;48.900;9.188;2022-12-18T02:34:37;32.75;;;12.10;;
38238;SDS011;24035;48.900;9.188;2022-12-18T02:37:05;23.15;;;10.60;;
38238;SDS011;24035;48.900;9.188;2022-12-18T02:39:36;25.58;;;10.82;;
38238;SDS011;24035;48.900;9.188;2022-12-18T02:42:03;29.63;;;11.50;;
38238;SDS011;24035;48.900;9.188;2022-12-18T02:44:33;33.78;;;11.90;;
38238;SDS011;24035;48.900;9.188;2022-12-18T02:47:00;30.25;;;10.98;;
38238;SDS011;24035;48.900;9.188;2022-12-18T02:57:53;25.88;;;10.65;;
38238;SDS011;24035;48.900;9.188;2022-12-18T03:00:33;26.65;;;10.32;;
38238;SDS011;24035;48.900;9.188;2022-12-18T03:03:06;26.08;;;10.00;;
38238;SDS011;24035;48.900;9.188;2022-12-18T03:05:36;25.17;;;10.40;;
38238;SDS011;24035;48.900;9.188;2022-12-18T03:08:07;29.67;;;11.30;;
38238;SDS011;24035;48.900;9.188;2022-12-18T03:10:38;24.42;;;9.73;;
38238;SDS011;24035;48.900;9.188;2022-12-18T03:13:13;21.92;;;9.85;;
38238;SDS011;24035;48.900;9.188;2022-12-18T03:15:45;26.08;;;11.60;;
38238;SDS011;24035;48.900;9.188;2022-12-18T03:18:18;27.50;;;9.88;;
38238;SDS011;24035;48.900;9.188;2022-12-18T03:20:58;30.65;;;12.10;;
38238;SDS011;24035;48.900;9.188;2022-12-18T03:23:29;26.67;;;11.73;;
38238;SDS011;24035;48.900;9.188;2022-12-18T03:26:01;30.30;;;9.77;;
38238;SDS011;24035;48.900;9.188;2022-12-18T03:28:33;24.85;;;11.00;;
38238;SDS011;24035;48.900;9.188;2022-12-18T03:31:02;32.40;;;11.85;;
38238;SDS011;24035;48.900;9.188;2022-12-18T03:33:43;25.13;;;10.57;;
38238;SDS011;24035;48.900;9.188;2022-12-18T03:36:17;23.77;;;10.20;;
38238;SDS011;24035;48.900;9.188;2022-12-18T03:38:43;23.45;;;10.02;;
38238;SDS011;24035;48.900;9.188;2022-12-18T03:41:16;21.80;;;8.32;;
38238;SDS011;24035;48.900;9.188;2022-12-18T03:46:52;20.25;;;9.13;;
38238;SDS011;24035;48.900;9.188;2022-12-18T03:49:33;24.15;;;9.43;;
38238;SDS011;24035;48.900;9.188;2022-12-18T03:52:08;24.15;;;8.77;;
38238;SDS011;24035;48.900;9.188;2022-12-18T03:54:38;24.60;;;9.60;;
38238;SDS011;24035;48.900;9.188;2022-12-18T03:57:09;18.38;;;8.10;;
38238;SDS011;24035;48.900;9.188;2022-12-18T03:59:38;26.15;;;9.55;;
38238;SDS011;24035;48.900;9.188;2022-12-18T04:02:05;19.92;;;9.05;;
38238;SDS011;24035;48.900;9.188;2022-12-18T04:04:33;19.05;;;8.35;;
38238;SDS011;24035;48.900;9.188;2022-12-18T04:07:00;21.48;;;8.45;;
38238;SDS011;24035;48.900;9.188;2022-12-18T04:09:27;23.13;;;9.30;;
38238;SDS011;24035;48.900;9.188;2022-12-18T04:11:55;27.60;;;10.00;;
38238;SDS011;24035;48.900;9.188;2022-12-18T04:14:20;21.50;;;8.20;;
38238;SDS011;24035;48.900;9.188;2022-12-18T04:16:46;20.80;;;9.27;;
38238;SDS011;24035;48.900;9.188;2022-12-18T04:19:12;27.67;;;10.32;;
38238;SDS011;24035;48.900;9.188;2022-12-18T04:21:38;22.58;;;8.00;;
38238;SDS011;24035;48.900;9.188;2022-12-18T04:24:03;24.50;;;9.95;;
38238;SDS011;24035;48.900;9.188;2022-12-18T04:26:29;22.63;;;9.85;;
38238;SDS011;24035;48.900;9.188;2022-12-18T04:28:55;25.80;;;9.52;;
38238;SDS011;24035;48.900;9.188;2022-12-18T04:31:21;19.75;;;7.72;;
38238;SDS011;24035;48.900;9.188;2022-12-18T04:33:46;20.10;;;7.40;;
38238;SDS011;24035;48.900;9.188;2022-12-18T04:36:12;22.45;;;9.23;;
38238;SDS011;24035;48.900;9.188;2022-12-18T04:38:38;19.92;;;8.43;;
38238;SDS011;24035;48.900;9.188;2022-12-18T04:41:03;25.50;;;8.55;;
38238;SDS011;24035;48.900;9.188;2022-12-18T04:43:29;23.33;;;9.35;;
38238;SDS011;24035;48.900;9.188;2022-12-18T04:46:01;24.80;;;8.85;;
38238;SDS011;24035;48.900;9.188;2022-12-18T04:48:27;15.33;;;7.87;;
38238;SDS011;24035;48.900;9.188;2022-12-18T04:50:53;19.90;;;8.90;;
38238;SDS011;24035;48.900;9.188;2022-12-18T04:53:19;21.95;;;7.53;;
38238;SDS011;24035;48.900;9.188;2022-12-18T04:55:44;21.90;;;9.98;;
38238;SDS011;24035;48.900;9.188;2022-12-18T04:58:10;23.67;;;9.10;;
38238;SDS011;24035;48.900;9.188;2022-12-18T05:00:36;21.25;;;8.55;;
38238;SDS011;24035;48.900;9.188;2022-12-18T05:03:01;19.55;;;7.75;;
38238;SDS011;24035;48.900;9.188;2022-12-18T05:05:27;20.25;;;9.00;;
38238;SDS011;24035;48.900;9.188;2022-12-18T05:07:53;20.75;;;9.02;;
38238;SDS011;24035;48.900;9.188;2022-12-18T05:10:18;25.33;;;9.70;;
38238;SDS011;24035;48.900;9.188;2022-12-18T05:12:44;25.05;;;8.73;;
38238;SDS011;24035;48.900;9.188;2022-12-18T05:15:29;23.00;;;7.38;;
38238;SDS011;24035;48.900;9.188;2022-12-18T05:17:56;26.95;;;10.32;;
38238;SDS011;24035;48.900;9.188;2022-12-18T05:20:23;15.93;;;8.48;;
38238;SDS011;24035;48.900;9.188;2022-12-18T05:22:49;23.67;;;9.50;;
38238;SDS011;24035;48.900;9.188;2022-12-18T05:25:16;26.00;;;9.90;;
38238;SDS011;24035;48.900;9.188;2022-12-18T05:27:42;22.85;;;9.13;;
38238;SDS011;24035;48.900;9.188;2022-12-18T05:30:08;21.48;;;9.10;;
38238;SDS011;24035;48.900;9.188;2022-12-18T05:32:34;24.90;;;9.05;;
38238;SDS011;24035;48.900;9.188;2022-12-18T05:35:00;18.35;;;8.00;;
38238;SDS011;24035;48.900;9.188;2022-12-18T05:37:25;21.55;;;7.95;;
38238;SDS011;24035;48.900;9.188;2022-12-18T05:39:51;19.17;;;7.93;;
38238;SDS011;24035;48.900;9.188;2022-12-18T05:42:17;14.52;;;7.70;;
38238;SDS011;24035;48.900;9.188;2022-12-18T05:44:43;17.80;;;8.48;;
38238;SDS011;24035;48.900;9.188;2022-12-18T05:47:09;18.40;;;7.55;;
38238;SDS011;24035;48.900;9.188;2022-12-18T05:49:34;22.42;;;10.20;;
38238;SDS011;24035;48.900;9.188;2022-12-18T05:52:00;18.35;;;8.43;;
38238;SDS011;24035;48.900;9.188;2022-12-18T05:54:29;15.00;;;7.00;;
38238;SDS011;24035;48.900;9.188;2022-12-18T05:56:54;25.17;;;10.77;;
38238;SDS011;24035;48.900;9.188;2022-12-18T05:59:20;25.98;;;9.95;;
38238;SDS011;24035;48.900;9.188;2022-12-18T06:01:46;23.63;;;9.20;;
38238;SDS011;24035;48.900;9.188;2022-12-18T06:04:12;23.88;;;9.10;;
38238;SDS011;24035;48.900;9.188;2022-12-18T06:06:37;20.92;;;9.43;;
38238;SDS011;24035;48.900;9.188;2022-12-18T06:09:03;22.58;;;8.27;;
38238;SDS011;24035;48.900;9.188;2022-12-18T06:11:35;21.17;;;8.40;;
38238;SDS011;24035;48.900;9.188;2022-12-18T06:14:02;23.30;;;9.35;;
38238;SDS011;24035;48.900;9.188;2022-12-18T06:16:29;25.95;;;10.63;;
38238;SDS011;24035;48.900;9.188;2022-12-18T06:18:56;30.80;;;8.95;;
38238;SDS011;24035;48.900;9.188;2022-12-18T06:21:22;24.70;;;9.27;;
38238;SDS011;24035;48.900;9.188;2022-12-18T06:23:48;29.45;;;9.25;;
38238;SDS011;24035;48.900;9.188;2022-12-18T06:26:14;19.67;;;8.30;;
38238;SDS011;24035;48.900;9.188;2022-12-18T06:28:40;28.77;;;10.15;;
38238;SDS011;24035;48.900;9.188;2022-12-18T06:31:06;22.10;;;9.27;;
38238;SDS011;24035;48.900;9.188;2022-12-18T06:33:32;22.30;;;10.05;;
38238;SDS011;24035;48.900;9.188;2022-12-18T06:36:03;18.35;;;8.50;;
38238;SDS011;24035;48.900;9.188;2022-12-18T06:38:31;19.73;;;8.07;;
38238;SDS011;24035;48.900;9.188;2022-12-18T06:40:57;23.65;;;9.82;;
38238;SDS011;24035;48.900;9.188;2022-12-18T06:43:23;18.60;;;8.38;;
38238;SDS011;24035;48.900;9.188;2022-12-18T06:45:49;23.75;;;8.07;;
38238;SDS011;24035;48.900;9.188;2022-12-18T06:48:20;16.98;;;6.75;;
38238;SDS011;24035;48.900;9.188;2022-12-18T06:50:46;19.85;;;8.13;;
38238;SDS011;24035;48.900;9.188;2022-12-18T06:53:12;28.88;;;8.38;;
38238;SDS011;24035;48.900;9.188;2022-12-18T06:55:38;18.58;;;8.48;;
38238;SDS011;24035;48.900;9.188;2022-12-18T06:58:04;17.75;;;9.25;;
38238;SDS011;24035;48.900;9.188;2022-12-18T07:00:30;16.70;;;7.13;;
38238;SDS011;24035;48.900;9.188;2022-12-18T07:02:55;21.50;;;9.13;;
38238;SDS011;24035;48.900;9.188;2022-12-18T07:05:21;20.80;;;8.45;;
38238;SDS011;24035;48.900;9.188;2022-12-18T07:07:49;19.33;;;7.68;;
38238;SDS011;24035;48.900;9.188;2022-12-18T07:10:14;16.33;;;8.55;;
38238;SDS011;24035;48.900;9.188;2022-12-18T07:12:40;20.67;;;9.40;;
38238;SDS011;24035;48.900;9.188;2022-12-18T07:15:06;24.30;;;10.35;;
38238;SDS011;24035;48.900;9.188;2022-12-18T07:17:32;18.98;;;9.43;;
38238;SDS011;24035;48.900;9.188;2022-12-18T07:19:58;21.13;;;7.68;;
38238;SDS011;24035;48.900;9.188;2022-12-18T07:22:25;23.48;;;8.82;;
38238;SDS011;24035;48.900;9.188;2022-12-18T07:24:51;19.52;;;8.15;;
38238;SDS011;24035;48.900;9.188;2022-12-18T07:27:16;13.80;;;6.13;;
38238;SDS011;24035;48.900;9.188;2022-12-18T07:29:42;25.08;;;8.40;;
38238;SDS011;24035;48.900;9.188;2022-12-18T07:32:08;18.95;;;9.90;;
38238;SDS011;24035;48.900;9.188;2022-12-18T07:34:34;18.52;;;8.95;;
38238;SDS011;24035;48.900;9.188;2022-12-18T07:36:59;23.05;;;8.10;;
38238;SDS011;24035;48.900;9.188;2022-12-18T07:39:25;19.02;;;8.52;;
38238;SDS011;24035;48.900;9.188;2022-12-18T07:41:51;21.52;;;8.27;;
38238;SDS011;24035;48.900;9.188;2022-12-18T07:44:35;16.40;;;7.55;;
38238;SDS011;24035;48.900;9.188;2022-12-18T07:47:01;23.55;;;9.55;;
38238;SDS011;24035;48.900;9.188;2022-12-18T07:49:27;20.95;;;9.00;;
38238;SDS011;24035;48.900;9.188;2022-12-18T07:51:56;17.52;;;9.25;;
38238;SDS011;24035;48.900;9.188;2022-12-18T07:54:23;28.45;;;7.90;;
38238;SDS011;24035;48.900;9.188;2022-12-18T07:56:49;20.27;;;9.57;;
38238;SDS011;24035;48.900;9.188;2022-12-18T07:59:15;22.60;;;7.00;;
38238;SDS011;24035;48.900;9.188;2022-12-18T08:01:41;20.65;;;7.60;;
38238;SDS011;24035;48.900;9.188;2022-12-18T08:04:07;24.13;;;7.50;;
38238;SDS011;24035;48.900;9.188;2022-12-18T08:06:33;26.05;;;8.35;;
38238;SDS011;24035;48.900;9.188;2022-12-18T08:08:58;17.48;;;8.10;;
38238;SDS011;24035;48.900;9.188;2022-12-18T08:11:25;18.45;;;8.52;;
38238;SDS011;24035;48.900;9.188;2022-12-18T08:13:52;20.40;;;8.15;;
38238;SDS011;24035;48.900;9.188;2022-12-18T08:16:19;17.63;;;8.60;;
38238;SDS011;24035;48.900;9.188;2022-12-18T08:18:45;21.70;;;7.85;;
38238;SDS011;24035;48.900;9.188;2022-12-18T08:21:12;18.55;;;7.38;;
38238;SDS011;24035;48.900;9.188;2022-12-18T08:23:41;21.88;;;7.72;;
38238;SDS011;24035;48.900;9.188;2022-12-18T08:26:08;15.35;;;7.63;;
38238;SDS011;24035;48.900;9.188;2022-12-18T08:28:35;18.05;;;8.80;;
38238;SDS011;24035;48.900;9.188;2022-12-18T08:31:01;22.08;;;8.27;;
38238;SDS011;24035;48.900;9.188;2022-12-18T08:33:26;17.60;;;7.30;;
38238;SDS011;24035;48.900;9.188;2022-12-18T08:35:52;25.15;;;9.55;;
38238;SDS011;24035;48.900;9.188;2022-12-18T08:38:18;18.27;;;7.78;;
38238;SDS011;24035;48.900;9.188;2022-12-18T08:40:44;27.02;;;9.43;;
38238;SDS011;24035;48.900;9.188;2022-12-18T08:43:10;26.63;;;10.07;;
38238;SDS011;24035;48.900;9.188;2022-12-18T08:45:55;22.00;;;9.18;;
38238;SDS011;24035;48.900;9.188;2022-12-18T08:48:22;20.65;;;7.43;;
38238;SDS011;24035;48.900;9.188;2022-12-18T08:50:55;21.17;;;7.75;;
38238;SDS011;24035;48.900;9.188;2022-12-18T08:53:24;29.30;;;10.32;;
38238;SDS011;24035;48.900;9.188;2022-12-18T08:55:50;24.98;;;10.45;;
38238;SDS011;24035;48.900;9.188;2022-12-18T08:58:16;22.40;;;9.88;;
38238;SDS011;24035;48.900;9.188;2022-12-18T09:00:42;28.15;;;9.88;;
38238;SDS011;24035;48.900;9.188;2022-12-18T09:03:15;24.55;;;9.38;;
38238;SDS011;24035;48.900;9.188;2022-12-18T09:05:43;22.60;;;9.90;;
38238;SDS011;24035;48.900;9.188;2022-12-18T09:08:11;22.10;;;9.32;;
38238;SDS011;24035;48.900;9.188;2022-12-18T09:10:41;26.65;;;8.77;;
38238;SDS011;24035;48.900;9.188;2022-12-18T09:13:09;25.75;;;10.13;;
38238;SDS011;24035;48.900;9.188;2022-12-18T09:15:40;19.17;;;7.93;;
38238;SDS011;24035;48.900;9.188;2022-12-18T09:18:08;19.35;;;8.32;;
38238;SDS011;24035;48.900;9.188;2022-12-18T09:20:35;24.23;;;10.52;;
38238;SDS011;24035;48.900;9.188;2022-12-18T09:23:01;28.65;;;10.25;;
38238;SDS011;24035;48.900;9.188;2022-12-18T09:25:28;28.23;;;10.13;;
38238;SDS011;24035;48.900;9.188;2022-12-18T09:28:02;27.30;;;10.13;;
38238;SDS011;24035;48.900;9.188;2022-12-18T09:30:28;32.28;;;9.90;;
38238;SDS011;24035;48.900;9.188;2022-12-18T09:32:54;27.92;;;9.10;;
38238;SDS011;24035;48.900;9.188;2022-12-18T09:35:20;18.08;;;7.60;;
38238;SDS011;24035;48.900;9.188;2022-12-18T09:37:47;23.50;;;9.55;;
38238;SDS011;24035;48.900;9.188;2022-12-18T09:40:16;20.95;;;8.13;;
38238;SDS011;24035;48.900;9.188;2022-12-18T09:42:45;25.63;;;8.70;;
38238;SDS011;24035;48.900;9.188;2022-12-18T09:45:24;24.05;;;9.65;;
38238;SDS011;24035;48.900;9.188;2022-12-18T09:47:50;23.38;;;8.57;;
38238;SDS011;24035;48.900;9.188;2022-12-18T09:50:22;25.00;;;9.10;;
38238;SDS011;24035;48.900;9.188;2022-12-18T09:52:50;26.15;;;10.98;;
38238;SDS011;24035;48.900;9.188;2022-12-18T09:55:27;26.70;;;9.73;;
38238;SDS011;24035;48.900;9.188;2022-12-18T09:58:00;23.50;;;8.90;;
38238;SDS011;24035;48.900;9.188;2022-12-18T10:00:34;25.92;;;10.10;;
38238;SDS011;24035;48.900;9.188;2022-12-18T10:03:05;29.27;;;9.50;;
38238;SDS011;24035;48.900;9.188;2022-12-18T10:11:19;25.42;;;9.20;;
38238;SDS011;24035;48.900;9.188;2022-12-18T10:13:59;25.33;;;10.48;;
38238;SDS011;24035;48.900;9.188;2022-12-18T10:27:43;27.23;;;10.63;;
38238;SDS011;24035;48.900;9.188;2022-12-18T10:30:17;31.13;;;12.00;;
38238;SDS011;24035;48.900;9.188;2022-12-18T10:32:44;30.70;;;11.88;;
38238;SDS011;24035;48.900;9.188;2022-12-18T10:35:21;32.33;;;11.95;;
38238;SDS011;24035;48.900;9.188;2022-12-18T10:40:29;33.28;;;12.48;;
38238;SDS011;24035;48.900;9.188;2022-12-18T10:43:12;27.67;;;11.68;;
38238;SDS011;24035;48.900;9.188;2022-12-18T10:45:39;35.28;;;12.80;;
38238;SDS011;24035;48.900;9.188;2022-12-18T10:48:17;31.13;;;10.73;;
38238;SDS011;24035;48.900;9.188;2022-12-18T10:50:46;29.63;;;11.85;;
38238;SDS011;24035;48.900;9.188;2022-12-18T10:53:18;28.80;;;10.68;;
38238;SDS011;24035;48.900;9.188;2022-12-18T10:55:47;26.85;;;10.95;;
38238;SDS011;24035;48.900;9.188;2022-12-18T10:58:24;24.48;;;11.55;;
38238;SDS011;24035;48.900;9.188;2022-12-18T11:06:10;23.50;;;8.65;;
38238;SDS011;24035;48.900;9.188;2022-12-18T11:08:36;24.60;;;11.38;;
38238;SDS011;24035;48.900;9.188;2022-12-18T11:11:02;25.25;;;10.93;;
38238;SDS011;24035;48.900;9.188;2022-12-18T11:13:32;30.80;;;12.60;;
38238;SDS011;24035;48.900;9.188;2022-12-18T11:15:58;32.70;;;12.50;;
38238;SDS011;24035;48.900;9.188;2022-12-18T11:18:26;32.83;;;13.07;;
38238;SDS011;24035;48.900;9.188;2022-12-18T11:20:59;29.98;;;11.88;;
38238;SDS011;24035;48.900;9.188;2022-12-18T11:23:35;29.13;;;11.15;;
38238;SDS011;24035;48.900;9.188;2022-12-18T11:26:03;34.92;;;11.73;;
38238;SDS011;24035;48.900;9.188;2022-12-18T11:28:37;30.00;;;12.48;;
38238;SDS011;24035;48.900;9.188;2022-12-18T11:33:48;29.73;;;9.82;;
38238;SDS011;24035;48.900;9.188;2022-12-18T11:36:19;29.50;;;11.15;;
38238;SDS011;24035;48.900;9.188;2022-12-18T11:38:46;28.23;;;11.80;;
38238;SDS011;24035;48.900;9.188;2022-12-18T11:41:26;24.60;;;10.35;;
38238;SDS011;24035;48.900;9.188;2022-12-18T11:44:28;28.57;;;9.97;;
38238;SDS011;24035;48.900;9.188;2022-12-18T11:47:09;26.60;;;10.50;;
38238;SDS011;24035;48.900;9.188;2022-12-18T11:49:59;32.60;;;10.15;;
38238;SDS011;24035;48.900;9.188;2022-12-18T11:52:28;25.70;;;11.82;;
38238;SDS011;24035;48.900;9.188;2022-12-18T11:55:07;35.08;;;11.68;;
38238;SDS011;24035;48.900;9.188;2022-12-18T11:57:39;30.42;;;10.82;;
38238;SDS011;24035;48.900;9.188;2022-12-18T12:14:01;27.52;;;9.85;;
38238;SDS011;24035;48.900;9.188;2022-12-18T12:16:50;27.00;;;9.85;;
38238;SDS011;24035;48.900;9.188;2022-12-18T12:22:15;24.80;;;10.52;;
38238;SDS011;24035;48.900;9.188;2022-12-18T12:30:30;31.00;;;11.50;;
38238;SDS011;24035;48.900;9.188;2022-12-18T12:33:19;26.70;;;10.80;;
38238;SDS011;24035;48.900;9.188;2022-12-18T12:36:10;32.25;;;11.82;;
38238;SDS011;24035;48.900;9.188;2022-12-18T12:38:55;28.60;;;11.48;;
38238;SDS011;24035;48.900;9.188;2022-12-18T12:41:31;27.63;;;10.85;;
38238;SDS011;24035;48.900;9.188;2022-12-18T12:44:28;24.75;;;10.20;;
38238;SDS011;24035;48.900;9.188;2022-12-18T12:47:20;29.27;;;10.88;;
38238;SDS011;24035;48.900;9.188;2022-12-18T12:49:50;28.98;;;11.13;;
38238;SDS011;24035;48.900;9.188;2022-12-18T12:55:07;33.22;;;12.32;;
38238;SDS011;24035;48.900;9.188;2022-12-18T12:57:41;25.75;;;11.13;;
38238;SDS011;24035;48.900;9.188;2022-12-18T13:00:16;29.00;;;11.07;;
38238;SDS011;24035;48.900;9.188;2022-12-18T13:05:50;29.08;;;10.73;;
38238;SDS011;24035;48.900;9.188;2022-12-18T13:10:56;31.83;;;11.95;;
38238;SDS011;24035;48.900;9.188;2022-12-18T13:13:53;33.22;;;11.38;;
38238;SDS011;24035;48.900;9.188;2022-12-18T13:16:20;23.80;;;10.23;;
38238;SDS011;24035;48.900;9.188;2022-12-18T13:18:51;29.25;;;10.80;;
38238;SDS011;24035;48.900;9.188;2022-12-18T13:21:27;31.30;;;11.43;;
38238;SDS011;24035;48.900;9.188;2022-12-18T13:23:57;28.25;;;10.98;;
38238;SDS011;24035;48.900;9.188;2022-12-18T13:26:45;26.50;;;10.07;;
38238;SDS011;24035;48.900;9.188;2022-12-18T13:29:10;30.38;;;10.45;;
38238;SDS011;24035;48.900;9.188;2022-12-18T13:39:57;29.30;;;11.02;;
38238;SDS011;24035;48.900;9.188;2022-12-18T13:45:58;23.95;;;9.55;;
38238;SDS011;24035;48.900;9.188;2022-12-18T13:48:03;29.77;;;11.10;;
38238;SDS011;24035;48.900;9.188;2022-12-18T13:50:30;29.77;;;9.65;;
38238;SDS011;24035;48.900;9.188;2022-12-18T13:52:56;28.95;;;12.20;;
38238;SDS011;24035;48.900;9.188;2022-12-18T13:55:23;29.80;;;10.93;;
38238;SDS011;24035;48.900;9.188;2022-12-18T13:57:48;31.63;;;11.18;;
38238;SDS011;24035;48.900;9.188;2022-12-18T14:00:27;26.20;;;10.60;;
38238;SDS011;24035;48.900;9.188;2022-12-18T14:02:54;26.98;;;10.57;;
38238;SDS011;24035;48.900;9.188;2022-12-18T14:05:22;31.15;;;10.77;;
38238;SDS011;24035;48.900;9.188;2022-12-18T14:07:49;26.63;;;11.25;;
38238;SDS011;24035;48.900;9.188;2022-12-18T14:10:15;27.58;;;11.48;;
38238;SDS011;24035;48.900;9.188;2022-12-18T14:12:44;27.13;;;10.05;;
38238;SDS011;24035;48.900;9.188;2022-12-18T14:20:19;32.42;;;10.43;;
38238;SDS011;24035;48.900;9.188;2022-12-18T14:22:45;27.30;;;11.02;;
38238;SDS011;24035;48.900;9.188;2022-12-18T14:27:49;24.45;;;10.27;;
38238;SDS011;24035;48.900;9.188;2022-12-18T14:33:01;31.42;;;11.00;;
38238;SDS011;24035;48.900;9.188;2022-12-18T14:35:28;27.13;;;9.98;;
38238;SDS011;24035;48.900;9.188;2022-12-18T14:38:08;28.17;;;10.25;;
38238;SDS011;24035;48.900;9.188;2022-12-18T14:40:40;25.73;;;10.38;;
38238;SDS011;24035;48.900;9.188;2022-12-18T14:43:08;26.85;;;10.25;;
38238;SDS011;24035;48.900;9.188;2022-12-18T14:45:38;29.05;;;10.50;;
38238;SDS011;24035;48.900;9.188;2022-12-18T14:48:12;27.83;;;11.95;;
38238;SDS011;24035;48.900;9.188;2022-12-18T14:50:39;29.08;;;10.88;;
38238;SDS011;24035;48.900;9.188;2022-12-18T14:53:05;26.38;;;10.63;;
38238;SDS011;24035;48.900;9.188;2022-12-18T14:55:45;30.10;;;10.45;;
38238;SDS011;24035;48.900;9.188;2022-12-18T14:58:13;31.23;;;11.60;;
38238;SDS011;24035;48.900;9.188;2022-12-18T15:00:41;31.73;;;12.05;;
38238;SDS011;24035;48.900;9.188;2022-12-18T15:03:07;20.13;;;9.77;;
38238;SDS011;24035;48.900;9.188;2022-12-18T15:05:35;26.75;;;11.02;;
38238;SDS011;24035;48.900;9.188;2022-12-18T15:08:01;23.95;;;10.10;;
38238;SDS011;24035;48.900;9.188;2022-12-18T15:20:30;29.38;;;11.13;;
38238;SDS011;24035;48.900;9.188;2022-12-18T15:22:57;29.92;;;12.20;;
38238;SDS011;24035;48.900;9.188;2022-12-18T15:25:34;29.65;;;10.65;;
38238;SDS011;24035;48.900;9.188;2022-12-18T15:28:02;28.63;;;11.18;;
38238;SDS011;24035;48.900;9.188;2022-12-18T15:30:28;26.38;;;10.88;;
38238;SDS011;24035;48.900;9.188;2022-12-18T15:38:35;27.52;;;9.40;;
38238;SDS011;24035;48.900;9.188;2022-12-18T15:41:01;24.35;;;10.20;;
38238;SDS011;24035;48.900;9.188;2022-12-18T15:43:27;21.80;;;9.73;;
38238;SDS011;24035;48.900;9.188;2022-12-18T15:46:06;28.02;;;10.95;;
38238;SDS011;24035;48.900;9.188;2022-12-18T15:48:39;28.35;;;11.48;;
38238;SDS011;24035;48.900;9.188;2022-12-18T15:51:23;26.02;;;9.95;;
38238;SDS011;24035;48.900;9.188;2022-12-18T15:53:58;28.67;;;9.43;;
38238;SDS011;24035;48.900;9.188;2022-12-18T15:56:26;27.35;;;10.48;;
38238;SDS011;24035;48.900;9.188;2022-12-18T15:59:14;29.38;;;10.70;;
38238;SDS011;24035;48.900;9.188;2022-12-18T16:01:45;26.38;;;10.95;;
38238;SDS011;24035;48.900;9.188;2022-12-18T16:04:14;23.63;;;10.80;;
38238;SDS011;24035;48.900;9.188;2022-12-18T16:06:41;25.85;;;10.30;;
38238;SDS011;24035;48.900;9.188;2022-12-18T16:09:07;26.10;;;10.07;;
38238;SDS011;24035;48.900;9.188;2022-12-18T16:11:33;28.80;;;10.45;;
38238;SDS011;24035;48.900;9.188;2022-12-18T16:14:21;29.65;;;9.70;;
38238;SDS011;24035;48.900;9.188;2022-12-18T16:16:49;31.05;;;12.45;;
38238;SDS011;24035;48.900;9.188;2022-12-18T16:19:17;27.88;;;10.52;;
38238;SDS011;24035;48.900;9.188;2022-12-18T16:21:43;27.42;;;9.80;;
38238;SDS011;24035;48.900;9.188;2022-12-18T16:24:44;31.20;;;10.77;;
38238;SDS011;24035;48.900;9.188;2022-12-18T16:27:02;27.17;;;9.18;;
38238;SDS011;24035;48.900;9.188;2022-12-18T16:29:28;26.80;;;10.50;;
38238;SDS011;24035;48.900;9.188;2022-12-18T16:31:58;25.60;;;9.95;;
38238;SDS011;24035;48.900;9.188;2022-12-18T16:34:28;25.60;;;10.30;;
38238;SDS011;24035;48.900;9.188;2022-12-18T16:36:56;25.98;;;9.30;;
38238;SDS011;24035;48.900;9.188;2022-12-18T16:39:24;26.38;;;10.00;;